PWSweather.com
Personal Weather Stations
Station Observations
TARRYHILL
Tarrytown, NY 10591

Tarrytown, NY 10591

Lat: 41.05185, Lon: -73.85296

Elevation: 341

Station Type: Davis Vantage Vue

www.tarrytownnyweather.com

High Low Average
Temperature 67.9°F19.9°C 54.6°F12.6°C 59.6°F15.3°C
Dew Point 57.8°F14.3°C 50.8°F10.4°C 54.0°F12.2°C
Winds 2.3 mph 3.7 kmh Calm Calm Calm SCalm S
Wind Gusts 4.6 mph7.4 kmh -- 1.0 mph1.6 kmh
Humidity 97% 64% 82%
Pressure 30.18 in1022.0 mb 29.96 in1014.6 mb -
Precipitation 0.21 in5.3 mm - -
Hour Temp Dew Point Humidity Winds Wind Gusts Pressure Precip Precip Rate Daily Precip Total
12:00 AM 59.4°F15.2°C 51.1°F10.6°C 74% Calm Calm -- 30.17 in1021.7 mb - 0.00 in0.0 mm 0.00 in0.0 mm
12:30 AM 59.5°F15.3°C 51.6°F10.9°C 75% Calm Calm -- 30.17 in1021.7 mb - 0.00 in0.0 mm 0.00 in0.0 mm
01:00 AM 58.8°F14.9°C 51.6°F10.9°C 77% Calm Calm 1.2 mph1.9 kmh 30.16 in1021.3 mb - 0.00 in0.0 mm 0.00 in0.0 mm
01:30 AM 59.5°F15.3°C 51.2°F10.7°C 74% Calm Calm 2.3 mph3.7 kmh 30.16 in1021.3 mb - 0.00 in0.0 mm 0.00 in0.0 mm
02:00 AM 60.1°F15.6°C 51.0°F10.6°C 72% Calm Calm -- 30.16 in1021.3 mb - 0.00 in0.0 mm 0.00 in0.0 mm
02:30 AM 60.6°F15.9°C 50.8°F10.4°C 70% Calm Calm 2.3 mph3.7 kmh 30.16 in1021.3 mb - 0.00 in0.0 mm 0.00 in0.0 mm
03:00 AM 60.5°F15.8°C 51.4°F10.8°C 72% Calm Calm -- 30.16 in1021.3 mb - 0.00 in0.0 mm 0.00 in0.0 mm
03:30 AM 59.9°F15.5°C 51.5°F10.8°C 74% Calm Calm 1.2 mph1.9 kmh 30.17 in1021.7 mb - 0.00 in0.0 mm 0.00 in0.0 mm
04:00 AM 60.1°F15.6°C 51.0°F10.6°C 72% Calm Calm -- 30.17 in1021.7 mb - 0.00 in0.0 mm 0.00 in0.0 mm
04:30 AM 59.0°F15.0°C 52.1°F11.2°C 78% Calm Calm -- 30.17 in1021.7 mb - 0.00 in0.0 mm 0.00 in0.0 mm
05:00 AM 58.9°F14.9°C 52.1°F11.2°C 78% Calm Calm -- 30.16 in1021.3 mb - 0.00 in0.0 mm 0.00 in0.0 mm
05:30 AM 58.4°F14.7°C 52.3°F11.3°C 80% Calm Calm -- 30.14 in1020.7 mb - 0.00 in0.0 mm 0.00 in0.0 mm
06:00 AM 58.8°F14.9°C 53.0°F11.7°C 81% Calm Calm -- 30.15 in1021.0 mb - 0.00 in0.0 mm 0.00 in0.0 mm
06:30 AM 58.4°F14.7°C 53.3°F11.8°C 83% Calm Calm -- 30.16 in1021.3 mb - 0.00 in0.0 mm 0.00 in0.0 mm
07:00 AM 59.5°F15.3°C 54.0°F12.2°C 82% Calm Calm -- 30.16 in1021.3 mb - 0.00 in0.0 mm 0.00 in0.0 mm
07:30 AM 60.9°F16.1°C 54.7°F12.6°C 80% Calm Calm -- 30.17 in1021.7 mb - 0.00 in0.0 mm 0.00 in0.0 mm
08:00 AM 61.8°F16.6°C 54.8°F12.7°C 78% Calm Calm -- 30.18 in1022.0 mb - 0.00 in0.0 mm 0.00 in0.0 mm
08:30 AM 63.2°F17.3°C 56.3°F13.5°C 78% Calm Calm -- 30.17 in1021.7 mb - 0.00 in0.0 mm 0.00 in0.0 mm
09:00 AM 66.5°F19.2°C 56.8°F13.8°C 71% 1.2 mph WSW1.9 kmh WSW 2.3 mph3.7 kmh 30.18 in1022.0 mb - 0.00 in0.0 mm 0.00 in0.0 mm
09:30 AM 64.8°F18.2°C 57.8°F14.3°C 78% Calm Calm -- 30.17 in1021.7 mb - 0.00 in0.0 mm 0.00 in0.0 mm
10:00 AM 66.1°F18.9°C 57.1°F13.9°C 73% Calm Calm 2.3 mph3.7 kmh 30.16 in1021.3 mb - 0.00 in0.0 mm 0.00 in0.0 mm
10:30 AM 67.0°F19.4°C 57.7°F14.3°C 72% Calm Calm -- 30.16 in1021.3 mb - 0.00 in0.0 mm 0.00 in0.0 mm
11:00 AM 67.9°F19.9°C 56.9°F13.8°C 68% Calm Calm -- 30.15 in1021.0 mb - 0.00 in0.0 mm 0.00 in0.0 mm
11:30 AM 67.8°F19.9°C 56.9°F13.8°C 68% 1.2 mph SE1.9 kmh SE 1.2 mph1.9 kmh 30.14 in1020.7 mb - 0.00 in0.0 mm 0.00 in0.0 mm
12:00 PM 66.9°F19.4°C 54.3°F12.4°C 64% 2.3 mph SW3.7 kmh SW 3.5 mph5.6 kmh 30.13 in1020.3 mb - 0.00 in0.0 mm 0.00 in0.0 mm
12:30 PM 65.9°F18.8°C 53.4°F11.9°C 64% 2.3 mph SW3.7 kmh SW 4.6 mph7.4 kmh 30.13 in1020.3 mb - 0.00 in0.0 mm 0.00 in0.0 mm
01:00 PM 65.1°F18.4°C 53.0°F11.7°C 65% 2.3 mph WSW3.7 kmh WSW 3.5 mph5.6 kmh 30.12 in1020.0 mb - 0.00 in0.0 mm 0.00 in0.0 mm
01:30 PM 64.2°F17.9°C 52.6°F11.4°C 66% 2.3 mph SW3.7 kmh SW 3.5 mph5.6 kmh 30.11 in1019.6 mb - 0.00 in0.0 mm 0.00 in0.0 mm
02:00 PM 63.3°F17.4°C 54.9°F12.7°C 74% Calm Calm 2.3 mph3.7 kmh 30.12 in1020.0 mb - 0.00 in0.0 mm 0.00 in0.0 mm
02:30 PM 61.7°F16.5°C 56.5°F13.6°C 83% Calm Calm -- 30.12 in1020.0 mb - 0.03 in0.8 mm 0.03 in0.8 mm
03:00 PM 60.6°F15.9°C 57.4°F14.1°C 89% Calm Calm -- 30.11 in1019.6 mb - 0.03 in0.8 mm 0.06 in1.5 mm
03:30 PM 58.8°F14.9°C 55.6°F13.1°C 89% Calm Calm 2.3 mph3.7 kmh 30.09 in1019.0 mb - 0.04 in1.0 mm 0.10 in2.5 mm
04:00 PM 57.6°F14.2°C 54.7°F12.6°C 90% Calm Calm 1.2 mph1.9 kmh 30.07 in1018.3 mb - 0.05 in1.3 mm 0.14 in3.6 mm
04:30 PM 56.7°F13.7°C 54.1°F12.3°C 91% 1.2 mph WSW1.9 kmh WSW 2.3 mph3.7 kmh 30.06 in1017.9 mb - 0.03 in0.8 mm 0.17 in4.3 mm
05:00 PM 56.0°F13.3°C 53.8°F12.1°C 92% Calm Calm 2.3 mph3.7 kmh 30.06 in1017.9 mb - 0.03 in0.8 mm 0.20 in5.1 mm
05:30 PM 55.7°F13.2°C 53.4°F11.9°C 92% Calm Calm -- 30.05 in1017.6 mb - 0.01 in0.3 mm 0.21 in5.3 mm
06:00 PM 55.5°F13.1°C 53.5°F11.9°C 93% Calm Calm -- 30.05 in1017.6 mb - 0.00 in0.0 mm 0.21 in5.3 mm
06:30 PM 55.3°F12.9°C 53.6°F12.0°C 94% Calm Calm 1.2 mph1.9 kmh 30.04 in1017.3 mb - 0.00 in0.0 mm 0.21 in5.3 mm
07:00 PM 55.5°F13.1°C 54.1°F12.3°C 95% Calm Calm -- 30.03 in1016.9 mb - 0.00 in0.0 mm 0.21 in5.3 mm
07:30 PM 55.4°F13.0°C 54.0°F12.2°C 95% Calm Calm 1.2 mph1.9 kmh 30.03 in1016.9 mb - 0.00 in0.0 mm 0.21 in5.3 mm
08:00 PM 55.2°F12.9°C 53.8°F12.1°C 95% Calm Calm -- 30.01 in1016.3 mb - 0.00 in0.0 mm 0.21 in5.3 mm
08:30 PM 55.0°F12.8°C 53.9°F12.2°C 96% Calm Calm -- 30.02 in1016.6 mb - 0.00 in0.0 mm 0.21 in5.3 mm
09:00 PM 54.9°F12.7°C 53.8°F12.1°C 96% Calm Calm -- 30.00 in1015.9 mb - 0.00 in0.0 mm 0.21 in5.3 mm
09:30 PM 54.9°F12.7°C 53.8°F12.1°C 96% Calm Calm -- 30.01 in1016.3 mb - 0.00 in0.0 mm 0.21 in5.3 mm
10:00 PM 54.8°F12.7°C 53.7°F12.1°C 96% Calm Calm -- 30.01 in1016.3 mb - 0.00 in0.0 mm 0.21 in5.3 mm
10:30 PM 54.6°F12.6°C 53.5°F11.9°C 96% Calm Calm -- 30.00 in1015.9 mb - 0.00 in0.0 mm 0.21 in5.3 mm
11:00 PM 54.6°F12.6°C 53.5°F11.9°C 96% Calm Calm -- 29.99 in1015.6 mb - 0.00 in0.0 mm 0.21 in5.3 mm
11:30 PM 55.0°F12.8°C 54.1°F12.3°C 97% Calm Calm -- 29.98 in1015.2 mb - 0.00 in0.0 mm 0.21 in5.3 mm